Time;durP1;ratioP1;P1;durP2;ratioP2;P2;SDS_P1;SDS_P2;PMS_P1;PMS_P2;Temp;Humidity;BMP_temperature;BMP_pressure;BME280_temperature;BME280_humidity;BME280_pressure;Samples;Min_cycle;Max_cycle;Signal;HPM_P1;HPM_P2
2022/11/02 00:01:19;;;;;;;10.50;5.27;;;;;;;5.20;100.00;96824.25;5039922;28;20440;-79
2022/11/02 00:03:47;;;;;;;12.90;5.70;;;;;;;4.77;100.00;96778.84;5043529;28;20414;-79
2022/11/02 00:06:13;;;;;;;8.33;5.20;;;;;;;4.98;100.00;96767.09;5019510;28;20442;-79
2022/11/02 00:08:40;;;;;;;6.83;4.83;;;;;;;5.22;100.00;96822.94;5030640;28;20499;-79
2022/11/02 00:11:07;;;;;;;6.50;4.80;;;;;;;5.21;100.00;96825.81;5047340;28;20502;-79
2022/11/02 00:13:34;;;;;;;7.30;4.33;;;;;;;4.99;100.00;96781.75;5057414;28;20473;-78
2022/11/02 00:16:07;;;;;;;5.13;4.63;;;;;;;4.98;100.00;96832.59;5030083;28;21024;-79
2022/11/02 00:18:35;;;;;;;4.50;4.10;;;;;;;5.11;100.00;96836.41;5061649;28;20434;-79
2022/11/02 00:21:03;;;;;;;5.10;4.50;;;;;;;5.17;100.00;96841.31;5041745;28;20470;-79
2022/11/02 00:23:31;;;;;;;5.47;3.50;;;;;;;4.42;100.00;96754.56;5048901;28;20438;-80
2022/11/02 00:26:00;;;;;;;5.47;4.00;;;;;;;5.07;100.00;96841.41;5050456;28;20482;-79
2022/11/02 00:28:29;;;;;;;5.20;3.80;;;;;;;5.21;100.00;96844.97;5020265;28;20529;-79
2022/11/02 00:30:56;;;;;;;5.33;4.83;;;;;;;5.25;100.00;96817.13;5046056;28;20457;-79
2022/11/02 00:33:25;;;;;;;4.87;3.80;;;;;;;5.54;100.00;96856.38;5027710;28;20458;-79
2022/11/02 00:35:53;;;;;;;8.37;4.03;;;;;;;5.51;100.00;96838.59;5046685;28;20483;-79
2022/11/02 00:38:20;;;;;;;5.67;4.33;;;;;;;5.32;100.00;96845.59;5025857;28;20435;-79
2022/11/02 00:40:46;;;;;;;7.13;4.10;;;;;;;4.92;100.00;96808.28;5048572;28;20426;-79
2022/11/02 00:43:13;;;;;;;4.03;3.33;;;;;;;5.01;100.00;96842.53;5009530;28;20435;-80
2022/11/02 00:45:40;;;;;;;4.90;3.73;;;;;;;4.63;100.00;96799.66;5025761;28;20489;-79
2022/11/02 00:48:07;;;;;;;5.90;4.40;;;;;;;4.63;100.00;96781.34;5027302;28;20432;-79
2022/11/02 00:50:33;;;;;;;3.67;3.37;;;;;;;5.18;100.00;96849.94;5039119;28;21005;-79
2022/11/02 00:53:01;;;;;;;8.07;4.70;;;;;;;5.10;100.00;96814.66;5038144;28;20466;-79
2022/11/02 00:55:28;;;;;;;5.53;3.93;;;;;;;4.91;100.00;96770.03;5047764;28;20438;-79
2022/11/02 00:57:59;;;;;;;4.37;3.97;;;;;;;5.24;100.00;96814.78;5043724;28;20418;-79
2022/11/02 01:00:26;;;;;;;4.77;4.07;;;;;;;5.52;100.00;96849.84;5044116;28;20930;-79
2022/11/02 01:02:53;;;;;;;4.53;3.33;;;;;;;5.31;100.00;96855.31;5037741;28;20442;-79
2022/11/02 01:05:19;;;;;;;6.77;2.77;;;;;;;5.17;100.00;96835.28;5048214;28;20535;-79
2022/11/02 01:07:46;;;;;;;4.20;3.20;;;;;;;5.05;100.00;96818.09;5020727;28;20442;-79
2022/11/02 01:10:13;;;;;;;3.67;3.33;;;;;;;5.04;100.00;96823.63;5049524;28;20502;-79
2022/11/02 01:12:40;;;;;;;5.03;3.13;;;;;;;4.66;100.00;96747.50;5032641;28;20471;-79
2022/11/02 01:15:09;;;;;;;4.90;3.47;;;;;;;5.15;100.00;96832.94;5029176;28;20445;-79
2022/11/02 01:17:37;;;;;;;4.67;3.27;;;;;;;5.39;100.00;96853.16;5024637;28;20438;-80
2022/11/02 01:20:05;;;;;;;4.60;3.80;;;;;;;5.43;100.00;96848.91;5036873;28;20482;-78
2022/11/02 01:22:32;;;;;;;4.67;3.80;;;;;;;5.24;100.00;96823.41;5036565;28;20986;-78
2022/11/02 01:24:58;;;;;;;3.77;3.13;;;;;;;5.27;100.00;96820.22;5038519;28;20422;-79
2022/11/02 01:27:25;;;;;;;5.50;4.40;;;;;;;5.17;100.00;96806.47;5043387;28;20943;-78
2022/11/02 01:29:52;;;;;;;6.43;3.90;;;;;;;5.46;100.00;96850.97;5018109;28;20426;-78
2022/11/02 01:32:18;;;;;;;9.57;4.03;;;;;;;5.16;100.00;96816.16;5017429;28;20475;-79
2022/11/02 01:34:45;;;;;;;3.37;3.07;;;;;;;5.09;100.00;96796.59;5030532;28;20996;-78
2022/11/02 01:37:14;;;;;;;3.67;3.37;;;;;;;4.92;100.00;96792.56;5037606;28;20446;-79
2022/11/02 01:39:40;;;;;;;3.70;3.33;;;;;;;5.00;100.00;96812.94;5037761;28;20445;-79
2022/11/02 01:42:24;;;;;;;4.30;3.27;;;;;;;5.05;100.00;96843.53;5017377;28;20586;-79
2022/11/02 01:44:51;;;;;;;3.53;2.53;;;;;;;4.82;100.00;96803.16;5044187;28;20446;-79
2022/11/02 01:47:31;;;;;;;7.70;3.17;;;;;;;5.00;100.00;96826.03;5039977;28;20946;-79
2022/11/02 01:50:07;;;;;;;3.67;3.37;;;;;;;5.11;100.00;96841.66;5024564;28;20970;-79
2022/11/02 01:52:36;;;;;;;3.70;3.40;;;;;;;4.97;100.00;96813.50;5025056;28;20466;-79
2022/11/02 01:55:11;;;;;;;8.00;3.13;;;;;;;5.13;100.00;96852.63;5018773;28;20446;-79
2022/11/02 01:57:40;;;;;;;6.63;3.27;;;;;;;4.82;100.00;96805.00;5017027;28;20497;-79
2022/11/02 02:00:11;;;;;;;5.03;3.33;;;;;;;5.07;100.00;96861.59;5039631;28;20442;-79
2022/11/02 02:03:04;;;;;;;4.10;2.87;;;;;;;5.17;100.00;96861.50;5038670;28;20881;-79
2022/11/02 02:05:33;;;;;;;5.50;3.17;;;;;;;4.90;100.00;96820.09;5019941;28;20451;-78
2022/11/02 02:08:02;;;;;;;3.90;2.23;;;;;;;5.06;100.00;96829.38;5036137;28;20496;-80
2022/11/02 02:10:30;;;;;;;5.67;1.70;;;;;;;5.23;100.00;96828.94;5036364;28;20461;-78
2022/11/02 02:12:57;;;;;;;5.87;3.53;;;;;;;5.40;100.00;96852.88;5037567;28;20509;-79
2022/11/02 02:15:30;;;;;;;3.47;3.23;;;;;;;5.09;100.00;96833.28;5036522;28;20438;-79
2022/11/02 02:18:12;;;;;;;3.67;2.90;;;;;;;5.16;100.00;96845.00;5029762;28;20442;-79
2022/11/02 02:21:03;;;;;;;3.83;3.40;;;;;;;5.17;100.00;96851.00;5037580;28;20446;-79
2022/11/02 02:24:08;;;;;;;3.73;3.43;;;;;;;5.19;100.00;96862.00;5049413;28;20882;-79
2022/11/02 02:27:16;;;;;;;6.63;4.00;;;;;;;4.68;100.00;96804.88;5018017;28;20525;-79
2022/11/02 02:29:50;;;;;;;4.20;3.80;;;;;;;4.86;100.00;96850.53;5031713;28;20446;-79
2022/11/02 02:32:40;;;;;;;4.47;3.23;;;;;;;4.76;100.00;96856.63;5030378;28;21001;-79
2022/11/02 02:35:21;;;;;;;3.73;3.10;;;;;;;4.61;100.00;96833.97;5024478;28;20446;-79
2022/11/02 02:37:53;;;;;;;4.00;3.67;;;;;;;4.41;100.00;96813.22;5035229;28;20528;-79
2022/11/02 02:40:30;;;;;;;4.63;3.50;;;;;;;4.53;100.00;96826.72;5034738;28;20484;-79
2022/11/02 02:43:15;;;;;;;8.17;3.70;;;;;;;4.35;100.00;96804.59;5035075;28;20942;-79
2022/11/02 02:45:53;;;;;;;5.37;4.87;;;;;;;4.51;100.00;96831.44;5034927;28;20564;-79
2022/11/02 02:48:22;;;;;;;5.77;5.13;;;;;;;4.41;100.00;96805.38;5034071;28;20513;-79
2022/11/02 02:50:52;;;;;;;6.03;4.80;;;;;;;4.44;100.00;96834.38;5034272;28;20425;-79
2022/11/02 02:53:29;;;;;;;6.70;4.93;;;;;;;4.58;100.00;96849.47;5041738;28;20933;-79
2022/11/02 02:55:58;;;;;;;5.90;4.37;;;;;;;4.43;100.00;96845.13;5022644;28;20877;-79
2022/11/02 02:58:31;;;;;;;5.70;3.97;;;;;;;3.69;100.00;96733.66;5033839;28;20442;-79
2022/11/02 03:00:59;;;;;;;6.13;4.03;;;;;;;4.41;100.00;96839.41;5031538;28;20739;-79
2022/11/02 03:03:29;;;;;;;5.10;4.60;;;;;;;3.92;100.00;96769.59;5034636;28;20451;-79
2022/11/02 03:06:04;;;;;;;4.43;3.70;;;;;;;4.18;100.00;96830.38;5017918;28;20460;-79
2022/11/02 03:08:37;;;;;;;5.03;4.53;;;;;;;3.88;100.00;96760.75;5034232;28;20438;-79
2022/11/02 03:11:18;;;;;;;6.40;5.20;;;;;;;4.38;100.00;96834.69;5034100;28;20994;-79
2022/11/02 03:14:17;;;;;;;8.50;3.83;;;;;;;4.21;100.00;96835.06;5045928;28;20442;-79
2022/11/02 03:17:13;;;;;;;5.60;4.77;;;;;;;3.89;100.00;96790.31;5015135;28;20423;-79
2022/11/02 03:20:26;;;;;;;6.43;4.90;;;;;;;4.13;100.00;96822.56;5021840;28;20478;-79
2022/11/02 03:23:11;;;;;;;4.30;3.70;;;;;;;4.21;100.00;96824.59;5009763;28;20458;-79
2022/11/02 03:25:53;;;;;;;6.30;4.27;;;;;;;4.00;100.00;96829.19;5047422;28;20431;-79
2022/11/02 03:29:03;;;;;;;4.07;3.57;;;;;;;3.92;100.00;96827.16;5019351;28;20466;-79
2022/11/02 03:31:40;;;;;;;5.73;4.17;;;;;;;3.72;100.00;96837.69;5003714;28;20467;-79
2022/11/02 03:34:15;;;;;;;8.17;4.03;;;;;;;3.70;100.00;96837.97;5023788;28;20558;-79
2022/11/02 03:36:58;;;;;;;4.00;3.23;;;;;;;3.68;100.00;96826.22;5036803;28;20429;-79
2022/11/02 03:39:35;;;;;;;4.93;3.37;;;;;;;3.80;100.00;96824.84;5048329;28;20462;-79
2022/11/02 03:42:04;;;;;;;4.70;3.27;;;;;;;3.55;100.00;96796.22;5022403;28;20504;-79
2022/11/02 03:44:37;;;;;;;4.10;3.40;;;;;;;3.47;100.00;96792.34;5047508;28;20437;-79
2022/11/02 03:47:08;;;;;;;7.10;3.40;;;;;;;3.63;100.00;96813.97;5000059;28;20435;-79
2022/11/02 03:49:40;;;;;;;3.13;2.83;;;;;;;3.43;100.00;96780.06;5016094;28;20439;-79
2022/11/02 03:52:12;;;;;;;4.00;3.40;;;;;;;3.85;100.00;96831.88;5036211;28;20473;-79
2022/11/02 03:54:46;;;;;;;9.30;3.23;;;;;;;3.72;100.00;96827.25;5004610;28;20474;-79
2022/11/02 03:57:24;;;;;;;5.00;3.83;;;;;;;3.52;100.00;96786.31;5029194;28;20802;-79
2022/11/02 03:59:51;;;;;;;8.97;3.10;;;;;;;3.69;100.00;96818.13;5027404;28;20461;-79
2022/11/02 04:02:18;;;;;;;5.17;3.83;;;;;;;3.59;100.00;96809.53;5024210;28;20466;-78
2022/11/02 04:04:51;;;;;;;9.30;3.53;;;;;;;3.78;100.00;96844.50;5048200;28;20434;-78
2022/11/02 04:07:27;;;;;;;5.27;2.93;;;;;;;3.70;100.00;96847.66;5029574;28;20438;-78
2022/11/02 04:09:54;;;;;;;8.97;2.87;;;;;;;3.43;100.00;96807.00;5036832;28;20433;-79
2022/11/02 04:15:07;;;;;;;4.67;3.63;;;;;;;3.62;100.00;96849.00;5056293;28;20417;-79
2022/11/02 04:20:21;;;;;;;3.93;3.50;;;;;;;3.60;100.00;96858.16;5055289;28;20456;-79
2022/11/02 04:25:33;;;;;;;11.70;4.10;;;;;;;3.40;100.00;96832.88;5035348;28;20525;-79
2022/11/02 04:28:13;;;;;;;3.90;3.40;;;;;;;3.12;100.00;96803.72;5036966;28;20448;-79
2022/11/02 04:30:46;;;;;;;3.23;3.03;;;;;;;3.43;100.00;96863.72;5037268;28;20461;-79
2022/11/02 04:33:32;;;;;;;8.83;4.20;;;;;;;3.25;100.00;96838.94;5038900;28;20461;-79
2022/11/02 04:36:07;;;;;;;4.97;3.87;;;;;;;3.16;100.00;96845.75;5024371;28;20446;-79
2022/11/02 04:38:39;;;;;;;4.87;2.80;;;;;;;3.26;100.00;96867.41;5036406;28;20505;-79
2022/11/02 04:41:40;;;;;;;8.43;3.97;;;;;;;2.97;100.00;96861.22;5036938;28;20762;-79
2022/11/02 04:44:16;;;;;;;7.43;4.33;;;;;;;3.06;100.00;96875.28;5037661;28;20440;-79
2022/11/02 04:46:50;;;;;;;14.60;4.47;;;;;;;2.81;100.00;96810.84;5020849;28;20542;-79
2022/11/02 04:49:18;;;;;;;8.83;5.07;;;;;;;3.33;100.00;96868.97;5050468;28;21036;-79
2022/11/02 04:51:45;;;;;;;7.83;5.23;;;;;;;3.19;100.00;96860.91;5037033;28;20854;-79
2022/11/02 04:54:17;;;;;;;9.53;4.60;;;;;;;3.12;100.00;96845.50;5037205;28;20816;-79
2022/11/02 04:56:46;;;;;;;11.30;6.63;;;;;;;2.79;100.00;96806.91;5017282;28;20812;-79
2022/11/02 04:59:15;;;;;;;9.73;4.97;;;;;;;2.89;100.00;96812.13;5028094;28;21032;-79
2022/11/02 05:01:41;;;;;;;8.23;5.70;;;;;;;3.17;100.00;96863.78;5016862;28;20466;-79
2022/11/02 05:04:09;;;;;;;8.33;5.27;;;;;;;3.04;100.00;96847.88;5019697;28;20470;-79
2022/11/02 05:06:36;;;;;;;8.53;4.53;;;;;;;2.74;100.00;96827.81;5046582;28;20429;-79
2022/11/02 05:09:03;;;;;;;5.50;4.00;;;;;;;2.70;100.00;96819.75;5039195;28;20482;-79
2022/11/02 05:11:31;;;;;;;12.87;4.93;;;;;;;2.57;100.00;96841.94;5020261;28;20997;-79
2022/11/02 05:13:58;;;;;;;7.53;4.80;;;;;;;2.72;100.00;96846.38;5024250;28;20547;-79
2022/11/02 05:16:27;;;;;;;6.70;4.60;;;;;;;3.09;100.00;96876.63;5036026;28;20822;-79
2022/11/02 05:18:53;;;;;;;6.13;5.53;;;;;;;3.18;100.00;96875.78;5017716;28;20434;-79
2022/11/02 05:21:22;;;;;;;7.60;6.57;;;;;;;2.85;100.00;96845.81;5030930;28;20460;-79
2022/11/02 05:23:49;;;;;;;16.90;7.17;;;;;;;2.93;100.00;96836.66;5020394;28;20454;-79
2022/11/02 05:26:16;;;;;;;8.27;6.30;;;;;;;2.92;100.00;96884.72;5027434;28;20452;-79
2022/11/02 05:28:46;;;;;;;8.17;6.80;;;;;;;2.81;100.00;96891.78;5042050;28;20445;-79
2022/11/02 05:31:13;;;;;;;15.57;8.10;;;;;;;2.91;100.00;96885.75;5033316;28;20578;-79
2022/11/02 05:33:39;;;;;;;9.10;5.60;;;;;;;2.74;100.00;96878.22;5034283;28;20458;-79
2022/11/02 05:36:11;;;;;;;8.73;7.50;;;;;;;2.91;100.00;96893.59;5035289;28;20798;-79
2022/11/02 05:38:41;;;;;;;19.00;13.10;;;;;;;2.62;100.00;96851.59;5019721;28;20552;-79
2022/11/02 05:41:08;;;;;;;16.23;11.27;;;;;;;2.78;100.00;96863.56;5015357;28;20466;-79
2022/11/02 05:43:37;;;;;;;21.63;13.20;;;;;;;2.40;100.00;96804.88;5015611;28;20446;-79
2022/11/02 05:46:06;;;;;;;18.00;13.07;;;;;;;2.79;100.00;96869.59;5030093;28;20434;-79
2022/11/02 05:48:32;;;;;;;17.77;12.57;;;;;;;1.85;100.00;96738.63;5042620;28;20540;-79
2022/11/02 05:51:01;;;;;;;14.27;10.67;;;;;;;2.59;100.00;96873.00;5040739;28;20426;-79
2022/11/02 05:53:32;;;;;;;14.33;9.37;;;;;;;2.27;100.00;96824.47;5017495;28;20455;-79
2022/11/02 05:56:01;;;;;;;14.00;8.80;;;;;;;2.53;100.00;96853.91;5015981;28;20855;-78
2022/11/02 05:58:28;;;;;;;10.70;8.70;;;;;;;2.94;100.00;96901.72;5024557;28;20438;-79
2022/11/02 06:00:58;;;;;;;12.50;8.87;;;;;;;2.96;100.00;96898.84;5037415;28;20592;-79
2022/11/02 06:03:25;;;;;;;9.60;8.70;;;;;;;2.99;100.00;96906.13;5047944;28;20422;-79
2022/11/02 06:06:00;;;;;;;12.80;9.50;;;;;;;2.97;100.00;96895.19;5035196;28;20450;-79
2022/11/02 06:08:28;;;;;;;6.83;6.13;;;;;;;2.67;100.00;96855.00;5035238;28;20478;-79
2022/11/02 06:10:54;;;;;;;9.90;7.67;;;;;;;3.03;100.00;96906.38;5035567;28;20517;-79
2022/11/02 06:13:21;;;;;;;7.40;6.70;;;;;;;2.85;100.00;96885.00;5018250;28;20877;-79
2022/11/02 06:15:48;;;;;;;9.67;6.27;;;;;;;2.78;100.00;96873.25;5040314;28;20547;-79
2022/11/02 06:18:14;;;;;;;11.00;6.90;;;;;;;2.69;100.00;96856.56;5056756;28;20448;-79
2022/11/02 06:20:41;;;;;;;19.17;7.60;;;;;;;2.87;100.00;96890.72;5035747;28;20485;-79
2022/11/02 06:23:08;;;;;;;6.87;6.17;;;;;;;2.65;100.00;96844.00;5018713;28;20466;-79
2022/11/02 06:25:35;;;;;;;12.27;8.03;;;;;;;2.73;100.00;96858.38;5035770;28;20513;-79
2022/11/02 06:28:01;;;;;;;9.80;6.87;;;;;;;2.87;100.00;96901.19;5034692;28;20446;-79
2022/11/02 06:30:30;;;;;;;9.67;6.73;;;;;;;2.46;100.00;96840.38;5040560;28;20449;-79
2022/11/02 06:32:56;;;;;;;14.43;9.03;;;;;;;2.75;100.00;96869.31;5042807;28;20468;-79
2022/11/02 06:35:31;;;;;;;13.07;11.87;;;;;;;2.80;100.00;96892.03;5030811;28;20900;-79
2022/11/02 06:37:58;;;;;;;30.40;28.00;;;;;;;2.73;100.00;96884.47;5028836;28;20443;-79
2022/11/02 06:40:25;;;;;;;17.90;16.00;;;;;;;2.43;100.00;96850.56;5023819;28;20568;-79
2022/11/02 06:42:56;;;;;;;39.37;35.83;;;;;;;2.69;100.00;96895.72;5037823;28;20461;-79
2022/11/02 06:45:41;;;;;;;71.00;63.50;;;;;;;2.64;100.00;96879.00;5016743;28;20431;-79
2022/11/02 06:48:08;;;;;;;55.23;49.33;;;;;;;2.91;100.00;96915.28;5033864;28;20529;-79
2022/11/02 06:50:35;;;;;;;26.30;19.57;;;;;;;2.79;100.00;96898.31;5047588;28;20441;-79
2022/11/02 06:53:02;;;;;;;28.53;25.60;;;;;;;2.56;100.00;96852.66;5026627;28;20478;-79
2022/11/02 06:55:29;;;;;;;20.63;17.80;;;;;;;3.14;100.00;96934.84;5019372;28;20469;-79
2022/11/02 06:57:56;;;;;;;56.70;42.13;;;;;;;3.14;100.00;96944.50;5045381;28;20428;-79
2022/11/02 07:00:22;;;;;;;17.53;14.33;;;;;;;3.11;100.00;96921.53;5028111;28;20426;-79
2022/11/02 07:03:08;;;;;;;11.20;9.67;;;;;;;3.28;100.00;96955.22;5036266;28;20442;-79
2022/11/02 07:05:36;;;;;;;14.63;11.20;;;;;;;3.39;100.00;96948.94;5035779;28;20529;-79
2022/11/02 07:08:03;;;;;;;8.83;7.93;;;;;;;3.18;100.00;96919.44;5035469;28;20458;-79
2022/11/02 07:10:30;;;;;;;9.63;8.53;;;;;;;3.42;100.00;96943.94;5047209;28;20502;-79
2022/11/02 07:12:57;;;;;;;9.90;9.00;;;;;;;3.52;100.00;96954.38;5023884;28;20469;-79
2022/11/02 07:15:26;;;;;;;14.03;9.63;;;;;;;3.36;100.00;96939.00;5037497;28;20957;-79
2022/11/02 07:17:53;;;;;;;11.30;10.10;;;;;;;3.61;100.00;96953.88;5055152;28;20430;-79
2022/11/02 07:20:20;;;;;;;15.80;10.07;;;;;;;3.45;100.00;96942.63;5038693;28;20537;-79
2022/11/02 07:22:55;;;;;;;13.77;11.43;;;;;;;3.61;100.00;96957.25;5015308;28;20550;-78
2022/11/02 07:25:22;;;;;;;20.47;15.47;;;;;;;3.47;100.00;96943.97;5041832;28;20439;-79
2022/11/02 07:27:49;;;;;;;16.67;11.77;;;;;;;3.23;100.00;96912.38;5015480;28;20431;-79
2022/11/02 07:30:15;;;;;;;21.27;18.60;;;;;;;3.35;100.00;96896.41;5002506;28;20874;-79
2022/11/02 07:32:43;;;;;;;29.17;21.20;;;;;;;3.85;100.00;96960.81;5015235;28;20490;-79
2022/11/02 07:35:12;;;;;;;32.67;20.10;;;;;;;3.90;100.00;96974.97;5032727;28;20970;-79
2022/11/02 07:37:40;;;;;;;29.67;18.97;;;;;;;3.65;100.00;96926.13;5036769;28;20942;-79
2022/11/02 07:40:08;;;;;;;25.60;19.90;;;;;;;4.01;100.00;96971.25;5036677;28;20950;-79
2022/11/02 07:42:35;;;;;;;35.30;26.43;;;;;;;3.76;100.00;96914.59;5015453;28;20454;-79
2022/11/02 07:45:04;;;;;;;27.03;20.20;;;;;;;3.65;100.00;96903.38;5018204;28;20443;-79
2022/11/02 07:47:32;;;;;;;22.83;16.77;;;;;;;3.99;100.00;96952.41;5036100;28;20438;-79
2022/11/02 07:49:59;;;;;;;23.83;18.00;;;;;;;4.20;100.00;96966.97;5016664;28;20436;-79
2022/11/02 07:52:26;;;;;;;21.83;17.13;;;;;;;4.27;100.00;96980.53;5039176;28;20458;-79
2022/11/02 07:54:53;;;;;;;26.77;17.80;;;;;;;4.02;100.00;96925.72;5020356;28;20431;-78
2022/11/02 07:57:19;;;;;;;28.07;19.80;;;;;;;4.37;100.00;96958.78;5039239;28;20480;-78
2022/11/02 07:59:47;;;;;;;32.93;22.00;;;;;;;4.57;100.00;96976.22;5018950;28;20447;-78
2022/11/02 08:02:13;;;;;;;23.33;16.60;;;;;;;4.45;100.00;96938.06;5016493;28;20538;-78
2022/11/02 08:04:40;;;;;;;24.83;16.73;;;;;;;4.71;100.00;96971.94;5043777;28;20427;-79
2022/11/02 08:07:11;;;;;;;19.17;13.37;;;;;;;4.56;100.00;96930.13;5042611;28;20441;-79
2022/11/02 08:09:38;;;;;;;15.90;10.20;;;;;;;5.00;100.00;96972.75;5043467;28;20488;-79
2022/11/02 08:12:05;;;;;;;13.07;9.00;;;;;;;5.13;100.00;96975.81;5030656;28;21000;-79
2022/11/02 08:14:31;;;;;;;8.73;7.83;;;;;;;5.17;100.00;96961.88;5032169;28;20487;-79
2022/11/02 08:16:58;;;;;;;20.80;10.80;;;;;;;5.22;100.00;96942.72;5012094;28;20439;-79
2022/11/02 08:19:24;;;;;;;17.73;11.60;;;;;;;5.48;100.00;96951.13;5049406;28;20486;-78
2022/11/02 08:21:51;;;;;;;24.00;11.57;;;;;;;5.51;100.00;96922.50;5042280;28;20462;-79
2022/11/02 08:24:18;;;;;;;14.60;12.10;;;;;;;5.70;100.00;96929.63;5022365;28;20492;-79
2022/11/02 08:26:45;;;;;;;18.10;11.83;;;;;;;5.88;100.00;96944.66;5013723;28;20932;-79
2022/11/02 08:29:15;;;;;;;12.27;9.40;;;;;;;5.98;100.00;96944.56;5023308;28;20422;-79
2022/11/02 08:31:41;;;;;;;8.40;6.97;;;;;;;6.34;100.00;96980.88;5034047;28;20449;-79
2022/11/02 08:34:10;;;;;;;7.83;7.13;;;;;;;6.43;100.00;96953.72;5035526;28;20528;-79
2022/11/02 08:36:37;;;;;;;6.40;5.90;;;;;;;6.68;100.00;96984.13;5034140;28;20433;-79
2022/11/02 08:39:24;;;;;;;9.23;5.70;;;;;;;6.79;100.00;96985.50;5033478;28;20480;-79
2022/11/02 08:41:51;;;;;;;5.87;5.27;;;;;;;6.91;100.00;96986.94;5043133;28;21040;-79
2022/11/02 08:44:17;;;;;;;8.43;6.73;;;;;;;6.89;100.00;96975.91;5031833;28;20442;-79
2022/11/02 08:46:44;;;;;;;13.77;6.83;;;;;;;6.79;100.00;96959.22;5046094;28;20531;-79
2022/11/02 08:49:11;;;;;;;7.87;7.17;;;;;;;6.77;100.00;96947.44;5033176;28;20886;-80
2022/11/02 08:51:37;;;;;;;11.13;7.20;;;;;;;6.69;100.00;96954.13;5019703;28;20522;-79
2022/11/02 08:54:04;;;;;;;12.07;6.80;;;;;;;6.79;100.00;96943.47;5050224;28;20449;-79
2022/11/02 08:56:31;;;;;;;10.70;6.77;;;;;;;7.03;100.00;96967.00;5040004;28;20495;-79
2022/11/02 08:58:57;;;;;;;9.20;4.87;;;;;;;7.02;100.00;96922.63;5040262;28;20437;-79
2022/11/02 09:01:24;;;;;;;9.70;5.10;;;;;;;7.57;100.00;96977.97;5044009;28;20494;-79
2022/11/02 09:03:51;;;;;;;5.47;4.97;;;;;;;7.62;100.00;96978.66;5032816;28;20879;-79
2022/11/02 09:06:17;;;;;;;5.97;3.70;;;;;;;7.62;100.00;96973.41;5062661;28;20428;-79
2022/11/02 09:08:44;;;;;;;7.43;4.17;;;;;;;7.64;100.00;96942.31;5024805;28;20439;-78
2022/11/02 09:11:11;;;;;;;4.80;4.23;;;;;;;7.98;100.00;96956.94;5038210;28;20600;-78
2022/11/02 09:13:38;;;;;;;6.40;4.10;;;;;;;8.56;100.00;96995.84;5051760;28;20466;-78
2022/11/02 09:16:05;;;;;;;5.83;3.87;;;;;;;8.66;100.00;96969.25;5025453;28;20532;-79
2022/11/02 09:18:31;;;;;;;8.37;4.50;;;;;;;9.12;100.00;96999.88;5012937;28;20443;-79
2022/11/02 09:21:03;;;;;;;11.97;3.87;;;;;;;9.43;100.00;97007.81;5042954;28;20448;-79
2022/11/02 09:23:30;;;;;;;2.80;2.47;;;;;;;9.76;100.00;97011.75;5010640;28;20882;-79
2022/11/02 09:25:58;;;;;;;3.20;2.50;;;;;;;9.91;100.00;97023.00;5017078;28;20433;-79
2022/11/02 09:28:25;;;;;;;6.40;2.40;;;;;;;10.07;100.00;97027.56;5043509;28;20934;-79
2022/11/02 09:30:52;;;;;;;10.23;2.03;;;;;;;10.01;100.00;96999.72;5015639;28;20466;-79
2022/11/02 09:33:19;;;;;;;3.13;2.27;;;;;;;10.07;100.00;97016.22;5030444;28;20462;-79
2022/11/02 09:35:47;;;;;;;5.13;2.17;;;;;;;9.84;100.00;96981.16;5019794;28;20445;-79
2022/11/02 09:38:17;;;;;;;6.97;3.43;;;;;;;9.61;100.00;96938.19;5050084;28;20524;-80
2022/11/02 09:41:08;;;;;;;6.00;2.13;;;;;;;9.94;100.00;96983.53;5036669;28;20427;-80
2022/11/02 09:43:44;;;;;;;4.20;2.27;;;;;;;10.28;100.00;97032.31;5033161;28;20482;-80
2022/11/02 09:46:18;;;;;;;4.40;2.40;;;;;;;9.98;100.00;96992.41;5044568;28;20501;-80
2022/11/02 09:48:53;;;;;;;4.07;2.10;;;;;;;10.34;100.00;97037.16;5043384;28;20425;-80
2022/11/02 09:51:25;;;;;;;9.83;2.73;;;;;;;10.29;100.00;97018.03;5025097;28;20519;-80
2022/11/02 09:54:04;;;;;;;4.53;2.07;;;;;;;10.51;100.00;97047.00;5045566;28;20494;-80
2022/11/02 09:56:33;;;;;;;3.47;1.90;;;;;;;10.58;100.00;97047.34;5031976;28;20496;-80
2022/11/02 09:59:03;;;;;;;3.80;1.60;;;;;;;10.52;100.00;97047.78;5048505;28;20536;-80
2022/11/02 10:01:54;;;;;;;10.50;2.73;;;;;;;10.49;100.00;97049.19;5030468;28;20794;-80
2022/11/02 10:04:31;;;;;;;4.10;1.70;;;;;;;10.21;100.00;97029.31;5041924;28;20477;-80
2022/11/02 10:07:13;;;;;;;3.93;2.30;;;;;;;10.20;100.00;97046.28;5045069;28;20537;-80
2022/11/02 10:09:53;;;;;;;4.10;2.10;;;;;;;10.26;100.00;97059.06;5019499;28;20427;-80
2022/11/02 10:12:50;;;;;;;1.50;1.40;;;;;;;10.25;100.00;97057.50;5018864;28;20495;-80
2022/11/02 10:15:16;;;;;;;8.90;1.77;;;;;;;10.24;100.00;97058.59;5013100;28;20439;-80
2022/11/02 10:17:46;;;;;;;9.73;2.73;;;;;;;10.09;100.00;97069.53;5055296;28;20548;-80
2022/11/02 10:20:47;;;;;;;4.40;2.33;;;;;;;10.03;100.00;97045.13;5040528;28;20477;-80
2022/11/02 10:23:52;;;;;;;8.17;2.13;;;;;;;9.75;100.00;96998.84;5039063;28;20461;-80
2022/11/02 10:26:36;;;;;;;9.70;2.50;;;;;;;9.22;100.00;96901.22;5043516;28;20495;-80
2022/11/02 10:29:29;;;;;;;4.60;1.93;;;;;;;9.77;100.00;96997.47;5006519;28;20448;-80
2022/11/02 10:31:55;;;;;;;5.63;3.13;;;;;;;10.07;100.00;97022.28;5032619;28;20545;-80
2022/11/02 10:34:27;;;;;;;11.67;2.60;;;;;;;10.32;100.00;97051.78;5046865;28;20996;-81
2022/11/02 10:37:33;;;;;;;5.83;2.23;;;;;;;10.43;100.00;97044.34;5026750;28;20441;-81
2022/11/02 10:40:30;;;;;;;8.97;2.47;;;;;;;10.63;100.00;97041.91;5035616;28;20434;-81
2022/11/02 10:43:00;;;;;;;3.57;2.00;;;;;;;10.73;100.00;97050.66;5027667;28;20489;-81
2022/11/02 10:46:16;;;;;;;5.00;1.50;;;;;;;10.73;100.00;97048.00;5049791;28;20420;-81
2022/11/02 10:48:52;;;;;;;7.13;2.03;;;;;;;10.85;100.00;97064.03;5055241;28;20441;-81
2022/11/02 10:51:20;;;;;;;9.47;2.30;;;;;;;10.90;100.00;97048.00;5057673;28;21090;-81
2022/11/02 10:53:49;;;;;;;9.27;2.43;;;;;;;11.03;100.00;97062.97;5040846;28;20468;-81
2022/11/02 10:56:28;;;;;;;9.07;1.80;;;;;;;10.95;100.00;97055.78;5047849;28;20425;-81
2022/11/02 10:59:13;;;;;;;5.80;2.60;;;;;;;11.11;100.00;97051.63;5056445;28;20462;-81
2022/11/02 11:01:55;;;;;;;4.80;1.90;;;;;;;11.08;100.00;97046.91;5032169;28;20558;-82
2022/11/02 11:04:27;;;;;;;3.70;1.50;;;;;;;11.00;100.00;97026.53;5042882;28;20436;-82
2022/11/02 11:06:55;;;;;;;4.93;1.83;;;;;;;11.26;100.00;97050.38;5046620;28;20433;-82
2022/11/02 11:09:30;;;;;;;2.60;1.93;;;;;;;11.40;100.00;97042.25;5033378;28;20445;-82
2022/11/02 11:12:19;;;;;;;9.27;2.03;;;;;;;11.40;100.00;97047.56;5020471;28;20460;-82
2022/11/02 11:14:51;;;;;;;8.47;2.40;;;;;;;11.13;100.00;97035.44;5034456;28;20861;-83
2022/11/02 11:17:40;;;;;;;8.07;2.53;;;;;;;10.93;100.00;97034.16;5012642;28;20461;-83
2022/11/02 11:20:35;;;;;;;6.70;1.80;;;;;;;11.03;100.00;97027.78;5048418;28;20442;-83
2022/11/02 11:23:07;;;;;;;5.60;2.80;;;;;;;11.00;100.00;97028.41;5047002;28;20443;-83
2022/11/02 11:25:34;;;;;;;4.07;2.20;;;;;;;11.11;100.00;97054.25;5040739;28;20445;-82
2022/11/02 11:28:01;;;;;;;6.90;3.00;;;;;;;11.05;100.00;97041.47;5041508;28;20445;-83
2022/11/02 11:30:31;;;;;;;5.80;2.37;;;;;;;11.07;100.00;97029.50;5030568;28;20445;-82
2022/11/02 11:33:20;;;;;;;4.57;2.50;;;;;;;11.20;100.00;97025.91;5034330;28;20528;-81
2022/11/02 11:35:49;;;;;;;4.87;1.63;;;;;;;11.23;100.00;97041.19;5009459;28;20478;-81
2022/11/02 11:38:26;;;;;;;8.40;1.73;;;;;;;11.29;100.00;97043.66;5048300;28;20468;-82
2022/11/02 11:40:58;;;;;;;4.50;2.07;;;;;;;11.15;100.00;97034.03;5022613;28;20853;-82
2022/11/02 11:43:28;;;;;;;3.33;1.73;;;;;;;11.37;100.00;97048.19;5046234;28;20927;-82
2022/11/02 11:45:58;;;;;;;4.43;2.40;;;;;;;10.62;100.00;96925.84;5047258;28;20494;-82
2022/11/02 11:48:44;;;;;;;6.73;1.90;;;;;;;11.46;100.00;97049.72;5013719;28;20440;-82
2022/11/02 11:51:41;;;;;;;5.27;2.17;;;;;;;11.57;100.00;97038.81;5022267;28;20470;-80
2022/11/02 11:54:16;;;;;;;4.73;1.60;;;;;;;11.58;100.00;97041.13;5039489;28;20509;-80
2022/11/02 11:56:44;;;;;;;4.00;1.40;;;;;;;11.78;100.00;97045.00;5028628;28;20855;-81
2022/11/02 11:59:26;;;;;;;2.90;1.80;;;;;;;11.62;100.00;97034.13;5023847;28;20453;-80
2022/11/02 12:02:00;;;;;;;5.57;1.57;;;;;;;11.47;100.00;97013.41;5042940;28;20481;-79